createdAt,value
2018-09-15T00:00:58.764Z,8.45
2018-09-15T00:02:02.889Z,7.75
2018-09-15T00:03:07.655Z,8.73
2018-09-15T00:04:11.831Z,7.72
2018-09-15T00:05:16.242Z,8.05
2018-09-15T00:06:20.588Z,8.73
2018-09-15T00:07:25.000Z,8.43
2018-09-15T00:08:29.249Z,8.70
2018-09-15T00:09:33.579Z,7.80
2018-09-15T00:10:37.927Z,8.35
2018-09-15T00:11:42.103Z,8.95
2018-09-15T00:12:46.616Z,9.00
2018-09-15T00:13:50.978Z,9.68
2018-09-15T00:14:55.343Z,8.03
2018-09-15T00:15:59.721Z,8.33
2018-09-15T00:17:03.799Z,7.65
2018-09-15T00:18:10.303Z,11.63
2018-09-15T00:19:14.668Z,8.55
2018-09-15T00:20:18.859Z,8.23
2018-09-15T00:21:23.035Z,7.87
2018-09-15T00:22:27.258Z,8.10
2018-09-15T00:23:31.375Z,6.62
2018-09-15T00:24:35.606Z,8.00
2018-09-15T00:25:40.740Z,7.75
2018-09-15T00:26:44.999Z,8.25
2018-09-15T00:27:49.555Z,8.73
2018-09-15T00:28:53.701Z,8.18
2018-09-15T00:29:57.925Z,7.17
2018-09-15T00:31:02.151Z,8.15
2018-09-15T00:32:06.356Z,9.00
2018-09-15T00:33:10.763Z,7.75
2018-09-15T00:34:15.065Z,8.55
2018-09-15T00:35:19.184Z,8.25
2018-09-15T00:36:23.912Z,8.15
2018-09-15T00:37:28.124Z,8.93
2018-09-15T00:38:32.393Z,8.08
2018-09-15T00:39:36.481Z,9.03
2018-09-15T00:40:40.632Z,7.30
2018-09-15T00:41:45.080Z,8.45
2018-09-15T00:42:49.286Z,8.18
2018-09-15T00:43:54.330Z,8.30
2018-09-15T00:44:58.537Z,7.65
2018-09-15T00:46:02.749Z,7.87
2018-09-15T00:47:06.926Z,7.70
2018-09-15T00:48:11.052Z,7.72
2018-09-15T00:49:15.266Z,7.50
2018-09-15T00:50:19.449Z,7.78
2018-09-15T00:51:23.675Z,8.80
2018-09-15T00:52:28.127Z,10.30
2018-09-15T00:53:32.962Z,7.12
2018-09-15T00:54:37.405Z,7.75
2018-09-15T00:55:41.839Z,7.25
2018-09-15T00:56:46.184Z,7.28
2018-09-15T00:57:50.596Z,7.55
2018-09-15T00:58:55.098Z,7.33
2018-09-15T00:59:59.441Z,7.30
2018-09-15T01:01:03.741Z,8.03
2018-09-15T01:02:08.059Z,7.75
2018-09-15T01:03:12.189Z,7.37
2018-09-15T01:04:16.308Z,7.15
2018-09-15T01:05:20.540Z,7.05
2018-09-15T01:06:24.789Z,7.60
2018-09-15T01:07:29.491Z,7.35
2018-09-15T01:08:33.619Z,7.10
2018-09-15T01:09:37.696Z,7.92
2018-09-15T01:10:41.910Z,7.50
2018-09-15T01:11:46.288Z,8.50
2018-09-15T01:12:50.651Z,7.20
2018-09-15T01:13:55.198Z,7.35
2018-09-15T01:14:59.403Z,7.45
2018-09-15T01:16:03.616Z,6.80
2018-09-15T01:17:08.239Z,7.17
2018-09-15T01:18:12.469Z,7.90
2018-09-15T01:19:16.745Z,8.75
2018-09-15T01:20:21.172Z,8.30
2018-09-15T01:21:25.640Z,7.72
2018-09-15T01:22:29.938Z,7.92
2018-09-15T01:23:34.199Z,8.18
2018-09-15T01:24:38.339Z,7.10
2018-09-15T01:25:42.691Z,8.43
2018-09-15T01:26:46.889Z,7.42
2018-09-15T01:27:51.302Z,7.75
2018-09-15T01:28:56.034Z,7.22
2018-09-15T01:30:00.465Z,8.13
2018-09-15T01:31:04.730Z,7.87
2018-09-15T01:32:09.058Z,8.58
2018-09-15T01:33:13.388Z,8.15
2018-09-15T01:34:17.754Z,8.50
2018-09-15T01:35:21.983Z,7.08
2018-09-15T01:36:26.200Z,8.25
2018-09-15T01:37:30.510Z,7.25
2018-09-15T01:38:34.856Z,7.80
2018-09-15T01:39:39.094Z,7.10
2018-09-15T01:40:43.223Z,7.55
2018-09-15T01:41:47.416Z,8.20
2018-09-15T01:42:51.634Z,7.50
2018-09-15T01:43:55.838Z,7.58
2018-09-15T01:45:00.006Z,7.10
2018-09-15T01:46:04.145Z,7.40
2018-09-15T01:47:08.731Z,7.92
2018-09-15T01:48:13.349Z,6.78
2018-09-15T01:49:17.992Z,7.90
2018-09-15T01:50:22.222Z,7.65
2018-09-15T01:51:26.519Z,8.80
2018-09-15T01:52:30.819Z,7.12
2018-09-15T01:53:35.393Z,7.60
2018-09-15T01:54:39.569Z,7.45
2018-09-15T01:55:44.302Z,6.97
2018-09-15T01:56:48.366Z,6.97
2018-09-15T01:57:52.850Z,7.85
2018-09-15T01:58:57.159Z,7.17
2018-09-15T02:00:01.685Z,8.78
2018-09-15T02:01:05.965Z,8.55
2018-09-15T02:02:10.518Z,7.75
2018-09-15T02:03:14.970Z,7.20
2018-09-15T02:04:19.194Z,7.60
2018-09-15T02:05:23.365Z,7.35
2018-09-15T02:06:27.797Z,10.35
2018-09-15T02:07:31.999Z,7.55
2018-09-15T02:08:36.155Z,7.67
2018-09-15T02:09:40.745Z,7.00
2018-09-15T02:10:45.048Z,7.95
2018-09-15T02:11:49.445Z,7.30
2018-09-15T02:12:53.807Z,6.90
2018-09-15T02:13:58.090Z,7.80
2018-09-15T02:15:02.443Z,7.50
2018-09-15T02:16:06.763Z,7.70
2018-09-15T02:17:11.128Z,9.98
2018-09-15T02:18:15.326Z,7.37
2018-09-15T02:19:19.737Z,7.42
2018-09-15T02:20:24.037Z,7.62
2018-09-15T02:21:28.402Z,7.80
2018-09-15T02:22:33.029Z,6.85
2018-09-15T02:23:37.456Z,7.47
2018-09-15T02:24:41.685Z,7.75
2018-09-15T02:25:46.042Z,7.78
2018-09-15T02:26:50.225Z,7.78
2018-09-15T02:27:54.317Z,7.50
2018-09-15T02:28:58.728Z,7.92
2018-09-15T02:30:03.030Z,8.08
2018-09-15T02:31:07.603Z,8.25
2018-09-15T02:32:12.014Z,7.30
2018-09-15T02:33:16.316Z,7.67
2018-09-15T02:34:20.620Z,9.23
2018-09-15T02:35:24.989Z,7.47
2018-09-15T02:36:29.257Z,7.40
2018-09-15T02:37:33.611Z,8.28
2018-09-15T02:38:38.142Z,7.78
2018-09-15T02:39:42.464Z,8.23
2018-09-15T02:40:46.639Z,7.65
2018-09-15T02:41:50.723Z,7.92
2018-09-15T02:42:54.958Z,7.37
2018-09-15T02:43:59.602Z,7.95
2018-09-15T02:45:04.064Z,7.45
2018-09-15T02:46:08.182Z,7.50
2018-09-15T02:47:12.444Z,8.13
2018-09-15T02:48:16.686Z,8.25
2018-09-15T02:49:21.122Z,7.78
2018-09-15T02:50:25.316Z,7.40
2018-09-15T02:51:29.408Z,8.08
2018-09-15T02:52:33.823Z,9.05
2018-09-15T02:53:38.619Z,8.23
2018-09-15T02:54:42.968Z,10.03
2018-09-15T02:55:47.290Z,7.78
2018-09-15T02:56:51.550Z,7.53
2018-09-15T02:57:55.875Z,8.75
2018-09-15T02:59:00.315Z,7.40
2018-09-15T03:00:04.463Z,7.97
2018-09-15T03:01:08.962Z,7.30
2018-09-15T03:02:13.158Z,7.75
2018-09-15T03:03:17.297Z,7.50
2018-09-15T03:04:21.748Z,8.15
2018-09-15T03:05:26.038Z,9.10
2018-09-15T03:06:30.608Z,9.48
2018-09-15T03:07:35.094Z,8.33
2018-09-15T03:08:39.603Z,8.55
2018-09-15T03:09:44.328Z,8.83
2018-09-15T03:10:48.737Z,8.10
2018-09-15T03:11:52.879Z,9.15
2018-09-15T03:12:57.039Z,9.70
2018-09-15T03:14:01.283Z,9.03
2018-09-15T03:15:05.663Z,9.65
2018-09-15T03:16:09.813Z,9.05
2018-09-15T03:17:14.059Z,9.78
2018-09-15T03:18:18.306Z,10.45
2018-09-15T03:19:23.043Z,9.38
2018-09-15T03:20:27.374Z,8.95
2018-09-15T03:21:31.682Z,10.13
2018-09-15T03:22:36.355Z,8.75
2018-09-15T03:23:40.562Z,9.50
2018-09-15T03:24:44.652Z,9.85
2018-09-15T03:25:48.934Z,10.40
2018-09-15T03:26:53.291Z,9.53
2018-09-15T03:27:57.577Z,11.22
2018-09-15T03:29:01.941Z,11.08
2018-09-15T03:30:06.110Z,10.35
2018-09-15T03:31:10.516Z,10.20
2018-09-15T03:32:14.784Z,10.08
2018-09-15T03:33:18.906Z,9.85
2018-09-15T03:34:23.287Z,9.78
2018-09-15T03:35:27.394Z,10.20
2018-09-15T03:36:31.855Z,9.80
2018-09-15T03:37:36.029Z,9.75
2018-09-15T03:38:40.469Z,10.30
2018-09-15T03:39:44.713Z,10.68
2018-09-15T03:40:48.975Z,10.98
2018-09-15T03:41:53.287Z,10.25
2018-09-15T03:42:57.397Z,11.60
2018-09-15T03:44:01.445Z,10.72
2018-09-15T03:45:05.552Z,12.85
2018-09-15T03:46:09.963Z,12.28
2018-09-15T03:47:14.194Z,11.73
2018-09-15T03:48:18.331Z,12.23
2018-09-15T03:49:22.513Z,11.50
2018-09-15T03:50:26.638Z,12.55
2018-09-15T03:51:30.838Z,13.75
2018-09-15T03:52:35.428Z,14.15
2018-09-15T03:53:39.573Z,12.23
2018-09-15T03:54:43.840Z,12.55
2018-09-15T03:55:48.101Z,14.70
2018-09-15T03:56:52.560Z,11.95
2018-09-15T03:57:56.919Z,13.70
2018-09-15T03:59:01.115Z,13.05
2018-09-15T04:00:05.568Z,11.45
2018-09-15T04:01:10.013Z,12.80
2018-09-15T04:02:14.274Z,13.30
2018-09-15T04:03:18.508Z,11.97
2018-09-15T04:04:22.972Z,12.28
2018-09-15T04:05:27.150Z,13.58
2018-09-15T04:06:31.325Z,13.50
2018-09-15T04:07:35.717Z,12.68
2018-09-15T04:08:39.813Z,13.55
2018-09-15T04:09:44.338Z,12.25
2018-09-15T04:10:48.555Z,13.35
2018-09-15T04:11:52.899Z,13.68
2018-09-15T04:12:57.295Z,13.90
2018-09-15T04:14:02.216Z,14.18
2018-09-15T04:15:06.484Z,14.20
2018-09-15T04:16:10.629Z,14.33
2018-09-15T04:17:15.017Z,14.68
2018-09-15T04:18:19.566Z,13.03
2018-09-15T04:19:23.802Z,13.93
2018-09-15T04:20:27.946Z,14.05
2018-09-15T04:21:32.371Z,15.10
2018-09-15T04:22:36.637Z,15.13
2018-09-15T04:23:40.744Z,14.75
2018-09-15T04:24:44.953Z,15.00
2018-09-15T04:25:49.537Z,15.18
2018-09-15T04:26:53.990Z,15.68
2018-09-15T04:27:58.369Z,14.47
2018-09-15T04:29:02.813Z,14.35
2018-09-15T04:30:07.250Z,15.95
2018-09-15T04:31:11.528Z,14.23
2018-09-15T04:32:15.769Z,16.40
2018-09-15T04:33:20.244Z,17.00
2018-09-15T04:34:24.629Z,15.63
2018-09-15T04:35:28.773Z,15.72
2018-09-15T04:36:32.920Z,16.97
2018-09-15T04:37:37.206Z,15.95
2018-09-15T04:38:41.333Z,17.87
2018-09-15T04:39:45.685Z,18.75
2018-09-15T04:40:49.994Z,18.27
2018-09-15T04:41:54.125Z,17.50
2018-09-15T04:42:58.258Z,16.93
2018-09-15T04:44:02.376Z,18.35
2018-09-15T04:45:06.791Z,18.15
2018-09-15T04:46:11.041Z,19.52
2018-09-15T04:47:15.294Z,19.02
2018-09-15T04:48:19.713Z,19.65
2018-09-15T04:49:23.985Z,19.55
2018-09-15T04:50:28.106Z,17.90
2018-09-15T04:51:32.315Z,18.85
2018-09-15T04:52:36.874Z,21.80
2018-09-15T04:53:40.956Z,29.18
2018-09-15T04:54:45.429Z,21.07
2018-09-15T04:55:49.696Z,22.37
2018-09-15T04:56:53.983Z,24.00
2018-09-15T04:57:58.342Z,23.57
2018-09-15T04:59:02.548Z,22.98
2018-09-15T05:00:06.808Z,23.40
2018-09-15T05:01:10.952Z,22.65
2018-09-15T05:02:15.274Z,22.90
2018-09-15T05:03:19.462Z,25.17
2018-09-15T05:04:23.600Z,24.87
2018-09-15T05:05:27.759Z,28.57
2018-09-15T05:06:31.944Z,26.23
2018-09-15T05:07:36.657Z,26.90
2018-09-15T05:08:40.782Z,26.57
2018-09-15T05:09:45.014Z,28.07
2018-09-15T05:10:49.349Z,29.10
2018-09-15T05:11:53.737Z,29.32
2018-09-15T05:12:58.117Z,28.55
2018-09-15T05:14:03.443Z,30.70
2018-09-15T05:15:07.679Z,28.38
2018-09-15T05:16:11.814Z,31.15
2018-09-15T05:17:16.106Z,29.85
2018-09-15T05:18:20.496Z,32.25
2018-09-15T05:19:25.073Z,29.23
2018-09-15T05:20:29.667Z,30.80
2018-09-15T05:21:34.236Z,32.05
2018-09-15T05:22:38.562Z,33.65
2018-09-15T05:23:42.846Z,32.17
2018-09-15T05:24:47.164Z,29.18
2018-09-15T05:25:51.588Z,28.80
2018-09-15T05:26:55.775Z,31.30
2018-09-15T05:27:59.954Z,33.70
2018-09-15T05:29:04.186Z,29.67
2018-09-15T05:30:08.816Z,30.88
2018-09-15T05:31:13.293Z,33.13
2018-09-15T05:32:17.599Z,32.23
2018-09-15T05:33:21.820Z,33.60
2018-09-15T05:34:26.053Z,32.20
2018-09-15T05:35:30.304Z,35.45
2018-09-15T05:36:34.896Z,33.58
2018-09-15T05:37:39.089Z,32.90
2018-09-15T05:38:43.386Z,32.42
2018-09-15T05:39:47.765Z,31.93
2018-09-15T05:40:51.894Z,31.95
2018-09-15T05:41:56.078Z,35.55
2018-09-15T05:43:00.333Z,33.08
2018-09-15T05:44:04.657Z,31.10
2018-09-15T05:45:08.999Z,31.68
2018-09-15T05:46:13.270Z,34.58
2018-09-15T05:47:17.481Z,33.23
2018-09-15T05:48:21.811Z,31.85
2018-09-15T05:49:25.908Z,35.55
2018-09-15T05:50:30.092Z,33.60
2018-09-15T05:51:34.506Z,33.10
2018-09-15T05:52:39.105Z,36.13
2018-09-15T05:53:43.756Z,35.40
2018-09-15T05:54:47.940Z,34.80
2018-09-15T05:55:52.194Z,34.40
2018-09-15T05:56:56.436Z,33.02
2018-09-15T05:58:00.617Z,33.35
2018-09-15T05:59:05.042Z,35.55
2018-09-15T06:00:09.255Z,37.28
2018-09-15T06:01:13.636Z,32.42
2018-09-15T06:02:18.214Z,33.95
2018-09-15T06:03:22.396Z,38.23
2018-09-15T06:04:26.719Z,36.77
2018-09-15T06:05:31.153Z,32.83
2018-09-15T06:06:35.302Z,34.13
2018-09-15T06:07:39.669Z,34.85
2018-09-15T06:08:44.018Z,37.78
2018-09-15T06:09:48.353Z,41.35
2018-09-15T06:10:52.722Z,37.73
2018-09-15T06:11:56.950Z,38.95
2018-09-15T06:13:01.234Z,35.90
2018-09-15T06:14:05.704Z,38.90
2018-09-15T06:15:10.028Z,33.95
2018-09-15T06:16:14.465Z,40.10
2018-09-15T06:17:18.665Z,38.45
2018-09-15T06:18:22.745Z,36.88
2018-09-15T06:19:28.000Z,35.52
2018-09-15T06:20:32.336Z,36.25
2018-09-15T06:21:36.592Z,38.83
2018-09-15T06:22:40.917Z,42.30
2018-09-15T06:23:45.241Z,42.35
2018-09-15T06:24:49.320Z,35.73
2018-09-15T06:25:53.846Z,36.30
2018-09-15T06:26:58.258Z,36.70
2018-09-15T06:28:02.738Z,36.00
2018-09-15T06:29:06.997Z,40.48
2018-09-15T06:30:11.491Z,35.10
2018-09-15T06:31:15.937Z,35.00
2018-09-15T06:32:20.243Z,34.43
2018-09-15T06:33:24.563Z,37.40
2018-09-15T06:34:28.971Z,33.15
2018-09-15T06:35:33.202Z,37.42
2018-09-15T06:36:37.592Z,33.88
2018-09-15T06:37:42.024Z,35.83
2018-09-15T06:38:46.474Z,36.55
2018-09-15T06:39:50.661Z,30.65
2018-09-15T06:40:55.060Z,36.17
2018-09-15T06:41:59.457Z,31.95
2018-09-15T06:43:03.742Z,39.00
2018-09-15T06:44:08.186Z,31.95
2018-09-15T06:45:12.511Z,38.30
2018-09-15T06:46:17.071Z,32.10
2018-09-15T06:47:21.317Z,32.08
2018-09-15T06:48:25.532Z,31.45
2018-09-15T06:49:29.862Z,33.50
2018-09-15T06:50:34.024Z,32.63
2018-09-15T06:51:38.623Z,33.35
2018-09-15T06:52:42.937Z,33.60
2018-09-15T06:53:47.073Z,34.60
2018-09-15T06:54:51.262Z,32.33
2018-09-15T06:55:55.496Z,38.92
2018-09-15T06:56:59.777Z,33.08
2018-09-15T06:58:04.039Z,33.45
2018-09-15T06:59:08.379Z,32.00
2018-09-15T07:00:12.831Z,35.23
2018-09-15T07:01:17.034Z,33.92
2018-09-15T07:02:21.401Z,33.20
2018-09-15T07:03:25.598Z,36.65
2018-09-15T07:04:29.942Z,34.95
2018-09-15T07:05:34.270Z,37.83
2018-09-15T07:06:38.427Z,35.78
2018-09-15T07:07:42.744Z,36.88
2018-09-15T07:08:46.871Z,35.10
2018-09-15T07:09:50.906Z,34.53
2018-09-15T07:10:55.041Z,29.90
2018-09-15T07:11:59.260Z,34.65
2018-09-15T07:13:03.573Z,36.25
2018-09-15T07:14:08.407Z,36.90
2018-09-15T07:15:12.779Z,37.05
2018-09-15T07:16:16.890Z,31.50
2018-09-15T07:17:21.232Z,33.48
2018-09-15T07:18:25.373Z,33.33
2018-09-15T07:19:29.907Z,32.38
2018-09-15T07:20:34.279Z,36.55
2018-09-15T07:21:38.814Z,32.50
2018-09-15T07:22:42.966Z,31.12
2018-09-15T07:23:47.354Z,33.75
2018-09-15T07:24:51.504Z,35.23
2018-09-15T07:25:55.892Z,29.85
2018-09-15T07:27:00.224Z,30.57
2018-09-15T07:28:04.664Z,28.07
2018-09-15T07:29:08.814Z,28.50
2018-09-15T07:31:14.457Z,30.95
2018-09-15T07:32:19.148Z,29.00
2018-09-15T07:33:23.353Z,31.50
2018-09-15T07:34:27.689Z,32.53
2018-09-15T07:35:32.005Z,29.30
2018-09-15T07:36:36.133Z,28.20
2018-09-15T07:37:40.300Z,27.98
2018-09-15T07:38:44.622Z,29.67
2018-09-15T07:39:48.865Z,32.30
2018-09-15T07:40:53.101Z,27.95
2018-09-15T07:41:57.345Z,27.62
2018-09-15T07:43:01.726Z,29.00
2018-09-15T07:44:06.011Z,27.67
2018-09-15T07:45:10.376Z,30.05
2018-09-15T07:46:14.945Z,27.20
2018-09-15T07:47:19.099Z,26.70
2018-09-15T07:48:23.327Z,26.00
2018-09-15T07:49:27.624Z,26.37
2018-09-15T07:50:31.778Z,25.68
2018-09-15T07:51:36.083Z,26.30
2018-09-15T07:52:40.419Z,25.95
2018-09-15T07:53:45.055Z,25.43
2018-09-15T07:54:49.370Z,25.88
2018-09-15T07:55:53.880Z,24.07
2018-09-15T07:56:58.718Z,28.75
2018-09-15T07:58:03.029Z,29.23
2018-09-15T07:59:07.337Z,27.55
2018-09-15T08:00:11.595Z,26.10
2018-09-15T08:01:15.871Z,25.08
2018-09-15T08:02:22.764Z,25.80
2018-09-15T08:03:26.950Z,26.62
2018-09-15T08:04:31.210Z,24.77
2018-09-15T08:05:35.943Z,24.40
2018-09-15T08:06:40.531Z,22.82
2018-09-15T08:07:45.309Z,24.72
2018-09-15T08:08:49.400Z,24.52
2018-09-15T08:09:53.642Z,24.92
2018-09-15T08:10:57.974Z,26.62
2018-09-15T08:12:02.269Z,26.45
2018-09-15T08:13:06.598Z,24.72
2018-09-15T08:14:10.691Z,24.52
2018-09-15T08:15:15.055Z,26.33
2018-09-15T08:16:19.229Z,24.00
2018-09-15T08:17:23.495Z,24.37
2018-09-15T08:18:27.812Z,25.35
2018-09-15T08:19:31.954Z,26.65
2018-09-15T08:20:36.243Z,23.95
2018-09-15T08:21:40.529Z,26.48
2018-09-15T08:22:44.795Z,24.92
2018-09-15T08:23:49.008Z,26.65
2018-09-15T08:24:53.284Z,25.43
2018-09-15T08:25:57.900Z,27.22
2018-09-15T08:27:02.444Z,25.52
2018-09-15T08:28:06.817Z,29.98
2018-09-15T08:29:11.209Z,27.35
2018-09-15T08:30:15.671Z,27.07
2018-09-15T08:31:20.079Z,25.88
2018-09-15T08:32:24.200Z,25.37
2018-09-15T08:33:28.440Z,27.55
2018-09-15T08:34:32.849Z,26.90
2018-09-15T08:35:37.196Z,28.35
2018-09-15T08:36:41.454Z,27.80
2018-09-15T08:37:45.789Z,28.67
2018-09-15T08:38:49.901Z,29.90
2018-09-15T08:39:54.341Z,27.58
2018-09-15T08:40:59.060Z,25.02
2018-09-15T08:42:03.347Z,29.42
2018-09-15T08:43:07.550Z,29.77
2018-09-15T08:44:11.757Z,29.75
2018-09-15T08:45:16.692Z,26.45
2018-09-15T08:46:21.107Z,27.02
2018-09-15T08:47:25.439Z,27.15
2018-09-15T08:48:30.151Z,27.02
2018-09-15T08:49:34.521Z,30.17
2018-09-15T08:50:39.242Z,29.20
2018-09-15T08:51:43.383Z,29.02
2018-09-15T08:52:47.471Z,27.15
2018-09-15T08:53:52.258Z,28.15
2018-09-15T08:54:56.834Z,26.85
2018-09-15T08:56:01.047Z,27.73
2018-09-15T08:57:05.388Z,27.02
2018-09-15T08:58:09.647Z,27.90
2018-09-15T08:59:13.829Z,26.07
2018-09-15T09:00:18.234Z,27.30
2018-09-15T09:01:22.641Z,26.27
2018-09-15T09:02:26.759Z,26.25
2018-09-15T09:03:31.255Z,27.02
2018-09-15T09:04:35.633Z,26.70
2018-09-15T09:05:39.780Z,25.08
2018-09-15T09:06:43.956Z,25.15
2018-09-15T09:07:48.397Z,26.42
2018-09-15T09:08:52.981Z,24.92
2018-09-15T09:09:57.217Z,26.17
2018-09-15T09:11:01.358Z,26.02
2018-09-15T09:12:05.722Z,23.73
2018-09-15T09:13:09.947Z,27.20
2018-09-15T09:14:14.347Z,26.55
2018-09-15T09:15:19.023Z,25.32
2018-09-15T09:16:23.530Z,26.17
2018-09-15T09:17:28.496Z,24.65
2018-09-15T09:18:32.827Z,25.95
2018-09-15T09:19:37.272Z,26.27
2018-09-15T09:20:41.509Z,25.40
2018-09-15T09:21:45.788Z,24.85
2018-09-15T09:22:50.126Z,24.98
2018-09-15T09:23:54.380Z,24.95
2018-09-15T09:24:58.862Z,23.92
2018-09-15T09:26:03.116Z,25.40
2018-09-15T09:27:07.389Z,25.60
2018-09-15T09:28:11.910Z,24.40
2018-09-15T09:29:16.148Z,24.25
2018-09-15T09:30:20.764Z,23.80
2018-09-15T09:31:25.187Z,24.05
2018-09-15T09:32:29.572Z,23.62
2018-09-15T09:33:33.750Z,22.17
2018-09-15T09:34:38.038Z,23.70
2018-09-15T09:35:42.605Z,22.90
2018-09-15T09:36:47.049Z,24.07
2018-09-15T09:37:51.332Z,21.68
2018-09-15T09:38:55.720Z,20.48
2018-09-15T09:39:59.898Z,22.60
2018-09-15T09:41:04.440Z,22.07
2018-09-15T09:42:09.176Z,24.32
2018-09-15T09:43:13.425Z,23.47
2018-09-15T09:44:17.776Z,25.60
2018-09-15T09:45:22.114Z,23.60
2018-09-15T09:46:26.602Z,22.55
2018-09-15T09:47:31.188Z,24.05
2018-09-15T09:48:35.294Z,22.75
2018-09-15T09:49:39.637Z,22.35
2018-09-15T09:50:44.987Z,26.42
2018-09-15T09:51:49.160Z,25.52
2018-09-15T09:52:53.586Z,22.62
2018-09-15T09:53:57.888Z,22.65
2018-09-15T09:55:02.063Z,23.00
2018-09-15T09:56:06.247Z,24.43
2018-09-15T09:57:10.767Z,22.65
2018-09-15T09:58:15.102Z,26.15
2018-09-15T09:59:19.539Z,26.62
2018-09-15T10:00:29.190Z,24.30
2018-09-15T10:02:37.522Z,26.52
2018-09-15T10:03:41.655Z,21.75
2018-09-15T10:04:46.014Z,20.62
2018-09-15T10:05:50.380Z,19.90
2018-09-15T10:06:54.704Z,21.12
2018-09-15T10:07:59.004Z,20.92
2018-09-15T10:09:03.636Z,21.75
2018-09-15T10:10:07.846Z,20.02
2018-09-15T10:11:12.147Z,21.30
2018-09-15T10:12:16.982Z,20.23
2018-09-15T10:13:21.334Z,20.35
2018-09-15T10:14:25.677Z,23.02
2018-09-15T10:15:30.079Z,21.77
2018-09-15T10:16:34.211Z,22.93
2018-09-15T10:17:38.373Z,20.52
2018-09-15T10:18:42.643Z,22.32
2018-09-15T10:19:46.761Z,22.15
2018-09-15T10:20:51.089Z,21.30
2018-09-15T10:21:55.449Z,23.45
2018-09-15T10:22:59.944Z,23.05
2018-09-15T10:24:04.186Z,21.82
2018-09-15T10:25:08.482Z,21.95
2018-09-15T10:26:12.975Z,21.85
2018-09-15T10:27:17.295Z,23.30
2018-09-15T10:28:21.532Z,23.67
2018-09-15T10:29:26.040Z,20.62
2018-09-15T10:30:30.204Z,22.00
2018-09-15T10:31:34.490Z,20.92
2018-09-15T10:32:38.851Z,21.35
2018-09-15T10:33:43.315Z,23.07
2018-09-15T10:34:47.589Z,20.72
2018-09-15T10:35:51.866Z,24.67
2018-09-15T10:36:56.210Z,23.55
2018-09-15T10:38:00.769Z,21.12
2018-09-15T10:39:07.459Z,22.37
2018-09-15T10:40:11.921Z,20.97
2018-09-15T10:41:16.150Z,21.60
2018-09-15T10:42:20.560Z,19.85
2018-09-15T10:43:24.871Z,20.65
2018-09-15T10:44:29.189Z,21.20
2018-09-15T10:45:33.719Z,22.02
2018-09-15T10:46:37.882Z,19.45
2018-09-15T10:47:42.112Z,18.73
2018-09-15T10:48:46.326Z,17.55
2018-09-15T10:49:50.530Z,17.23
2018-09-15T10:50:54.785Z,17.60
2018-09-15T10:51:59.194Z,16.60
2018-09-15T10:53:03.350Z,16.35
2018-09-15T10:54:07.674Z,14.53
2018-09-15T10:55:11.863Z,16.37
2018-09-15T10:56:16.207Z,16.30
2018-09-15T10:57:20.325Z,14.63
2018-09-15T10:58:24.770Z,16.05
2018-09-15T10:59:28.970Z,14.85
2018-09-15T11:00:33.215Z,15.78
2018-09-15T11:01:37.409Z,14.18
2018-09-15T11:02:41.608Z,14.45
2018-09-15T11:03:45.888Z,16.05
2018-09-15T11:04:50.129Z,15.45
2018-09-15T11:05:54.769Z,16.40
2018-09-15T11:06:58.985Z,14.90
2018-09-15T11:08:03.585Z,14.50
2018-09-15T11:09:09.380Z,14.03
2018-09-15T11:10:13.980Z,14.40
2018-09-15T11:11:18.235Z,14.38
2018-09-15T11:12:22.523Z,17.82
2018-09-15T11:13:27.005Z,15.38
2018-09-15T11:14:31.596Z,16.52
2018-09-15T11:15:36.003Z,17.50
2018-09-15T11:16:40.274Z,14.07
2018-09-15T11:17:44.698Z,16.45
2018-09-15T11:18:48.919Z,16.73
2018-09-15T11:19:53.232Z,13.25
2018-09-15T11:20:57.472Z,14.60
2018-09-15T11:22:01.665Z,14.65
2018-09-15T11:23:05.946Z,14.47
2018-09-15T11:24:10.166Z,15.65
2018-09-15T11:25:14.339Z,16.37
2018-09-15T11:26:18.510Z,14.23
2018-09-15T11:27:22.606Z,15.13
2018-09-15T11:28:26.795Z,14.85
2018-09-15T11:29:31.120Z,13.80
2018-09-15T11:30:35.479Z,14.05
2018-09-15T11:31:39.639Z,15.38
2018-09-15T11:32:43.851Z,15.13
2018-09-15T11:33:48.129Z,15.43
2018-09-15T11:34:52.518Z,14.50
2018-09-15T11:35:56.672Z,13.08
2018-09-15T11:37:01.344Z,13.03
2018-09-15T11:38:05.903Z,13.00
2018-09-15T11:39:11.858Z,11.75
2018-09-15T11:40:16.430Z,10.85
2018-09-15T11:41:20.936Z,11.28
2018-09-15T11:42:24.988Z,11.15
2018-09-15T11:43:29.131Z,10.65
2018-09-15T11:44:33.407Z,9.78
2018-09-15T11:45:38.154Z,9.23
2018-09-15T11:46:42.413Z,9.73
2018-09-15T11:47:46.594Z,9.88
2018-09-15T11:48:50.788Z,8.88
2018-09-15T11:49:55.268Z,8.80
2018-09-15T11:50:59.410Z,10.05
2018-09-15T11:52:03.702Z,8.28
2018-09-15T11:53:08.007Z,9.38
2018-09-15T11:54:12.271Z,12.23
2018-09-15T11:55:16.941Z,9.00
2018-09-15T11:56:21.348Z,9.20
2018-09-15T11:57:25.492Z,9.10
2018-09-15T11:58:29.839Z,9.65
2018-09-15T11:59:34.138Z,10.38
2018-09-15T12:00:40.333Z,9.38
2018-09-15T12:01:44.654Z,10.05
2018-09-15T12:02:49.207Z,8.85
2018-09-15T12:03:53.650Z,12.07
2018-09-15T12:04:58.431Z,8.65
2018-09-15T12:06:02.569Z,9.33
2018-09-15T12:07:07.311Z,9.40
2018-09-15T12:08:11.763Z,9.40
2018-09-15T12:09:15.875Z,9.80
2018-09-15T12:10:20.070Z,9.90
2018-09-15T12:11:24.374Z,9.63
2018-09-15T12:12:28.613Z,11.08
2018-09-15T12:13:32.932Z,10.45
2018-09-15T12:14:37.252Z,10.18
2018-09-15T12:15:42.470Z,10.65
2018-09-15T12:16:46.913Z,11.25
2018-09-15T12:17:51.077Z,9.93
2018-09-15T12:18:55.121Z,10.38
2018-09-15T12:19:59.298Z,9.43
2018-09-15T12:21:03.790Z,9.60
2018-09-15T12:22:08.022Z,9.83
2018-09-15T12:23:12.222Z,9.90
2018-09-15T12:24:16.303Z,10.88
2018-09-15T12:25:20.578Z,11.08
2018-09-15T12:26:24.872Z,11.85
2018-09-15T12:27:29.382Z,12.47
2018-09-15T12:28:33.605Z,10.23
2018-09-15T12:29:38.239Z,11.85
2018-09-15T12:30:42.474Z,10.60
2018-09-15T12:31:46.726Z,12.10
2018-09-15T12:32:51.450Z,14.73
2018-09-15T12:33:56.034Z,11.33
2018-09-15T12:35:00.139Z,12.55
2018-09-15T12:36:04.411Z,14.38
2018-09-15T12:37:08.821Z,15.23
2018-09-15T12:38:13.146Z,12.45
2018-09-15T12:39:17.358Z,13.15
2018-09-15T12:40:21.689Z,12.60
2018-09-15T12:41:26.032Z,13.55
2018-09-15T12:42:30.480Z,13.40
2018-09-15T12:43:34.629Z,13.08
2018-09-15T12:44:38.987Z,14.63
2018-09-15T12:45:43.250Z,13.43
2018-09-15T12:46:47.489Z,13.15
2018-09-15T12:47:51.560Z,12.63
2018-09-15T12:48:56.120Z,12.00
2018-09-15T12:50:00.574Z,9.85
2018-09-15T12:51:04.860Z,10.20
2018-09-15T12:52:09.097Z,10.35
2018-09-15T12:53:13.529Z,11.05
2018-09-15T12:54:17.973Z,8.88
2018-09-15T12:55:22.281Z,10.72
2018-09-15T12:56:26.492Z,10.18
2018-09-15T12:57:30.746Z,10.20
2018-09-15T12:58:34.891Z,9.88
2018-09-15T12:59:39.039Z,9.08
2018-09-15T13:00:43.077Z,8.75
2018-09-15T13:01:47.384Z,9.68
2018-09-15T13:02:51.602Z,10.43
2018-09-15T13:03:55.828Z,9.35
2018-09-15T13:05:00.132Z,8.60
2018-09-15T13:06:04.590Z,8.40
2018-09-15T13:07:09.160Z,8.75
2018-09-15T13:08:13.413Z,9.30
2018-09-15T13:09:17.660Z,8.95
2018-09-15T13:10:22.336Z,9.33
2018-09-15T13:11:26.539Z,9.63
2018-09-15T13:12:31.158Z,9.38
2018-09-15T13:13:35.484Z,9.95
2018-09-15T13:14:39.951Z,10.15
2018-09-15T13:15:44.311Z,8.75
2018-09-15T13:16:48.800Z,9.53
2018-09-15T13:17:53.035Z,11.18
2018-09-15T13:18:57.424Z,10.50
2018-09-15T13:20:01.908Z,9.20
2018-09-15T13:21:06.234Z,11.03
2018-09-15T13:22:10.595Z,10.98
2018-09-15T13:23:14.937Z,10.90
2018-09-15T13:24:19.274Z,11.10
2018-09-15T13:25:23.497Z,9.85
2018-09-15T13:26:28.073Z,9.80
2018-09-15T13:27:32.436Z,9.83
2018-09-15T13:28:36.804Z,9.38
2018-09-15T13:29:41.067Z,10.50
2018-09-15T13:30:45.520Z,10.55
2018-09-15T13:31:49.697Z,9.88
2018-09-15T13:32:54.009Z,10.95
2018-09-15T13:33:58.327Z,12.28
2018-09-15T13:35:02.607Z,10.70
2018-09-15T13:36:07.083Z,10.08
2018-09-15T13:37:11.317Z,9.98
2018-09-15T13:38:16.006Z,11.65
2018-09-15T13:39:20.649Z,10.43
2018-09-15T13:40:25.120Z,8.80
2018-09-15T13:41:29.399Z,9.28
2018-09-15T13:42:33.794Z,9.00
2018-09-15T13:43:38.118Z,10.70
2018-09-15T13:44:42.832Z,10.48
2018-09-15T13:45:47.171Z,10.25
2018-09-15T13:46:51.381Z,8.30
2018-09-15T13:47:55.678Z,8.88
2018-09-15T13:48:59.865Z,8.33
2018-09-15T13:50:04.173Z,9.95
2018-09-15T13:51:08.549Z,8.75
2018-09-15T13:52:12.760Z,9.83
2018-09-15T13:53:16.948Z,9.90
2018-09-15T13:54:21.466Z,9.98
2018-09-15T13:55:25.635Z,9.98
2018-09-15T13:56:30.005Z,9.95
2018-09-15T13:57:34.416Z,9.15
2018-09-15T13:58:38.960Z,10.05
2018-09-15T13:59:43.240Z,8.95